sensor_id;sensor_type;location;lat;lon;timestamp;temperature;humidity
70170;DHT22;57543;45.442;9.212;2024-03-02T00:02:27;11.83;90.13
70170;DHT22;57543;45.442;9.212;2024-03-02T00:05:31;11.82;89.99
70170;DHT22;57543;45.442;9.212;2024-03-02T00:08:35;11.84;90.05
70170;DHT22;57543;45.442;9.212;2024-03-02T00:11:39;11.82;89.99
70170;DHT22;57543;45.442;9.212;2024-03-02T00:14:43;11.77;90.02
70170;DHT22;57543;45.442;9.212;2024-03-02T00:17:52;11.76;90.11
70170;DHT22;57543;45.442;9.212;2024-03-02T00:20:57;11.76;90.21
70170;DHT22;57543;45.442;9.212;2024-03-02T00:24:08;11.76;90.22
70170;DHT22;57543;45.442;9.212;2024-03-02T00:27:21;11.73;90.32
70170;DHT22;57543;45.442;9.212;2024-03-02T00:33:55;11.66;90.55
70170;DHT22;57543;45.442;9.212;2024-03-02T00:36:59;11.67;90.58
70170;DHT22;57543;45.442;9.212;2024-03-02T00:40:04;11.69;90.50
70170;DHT22;57543;45.442;9.212;2024-03-02T00:46:40;11.70;90.69
70170;DHT22;57543;45.442;9.212;2024-03-02T00:49:46;11.73;90.71
70170;DHT22;57543;45.442;9.212;2024-03-02T00:52:51;11.77;90.58
70170;DHT22;57543;45.442;9.212;2024-03-02T00:55:56;11.79;90.58
70170;DHT22;57543;45.442;9.212;2024-03-02T00:59:02;11.83;90.51
70170;DHT22;57543;45.442;9.212;2024-03-02T01:02:06;11.77;90.43
70170;DHT22;57543;45.442;9.212;2024-03-02T01:05:10;11.83;90.26
70170;DHT22;57543;45.442;9.212;2024-03-02T01:08:13;11.86;90.20
70170;DHT22;57543;45.442;9.212;2024-03-02T01:11:17;11.80;90.18
70170;DHT22;57543;45.442;9.212;2024-03-02T01:14:21;11.80;90.23
70170;DHT22;57543;45.442;9.212;2024-03-02T01:17:25;11.82;90.25
70170;DHT22;57543;45.442;9.212;2024-03-02T01:20:29;11.80;90.31
70170;DHT22;57543;45.442;9.212;2024-03-02T01:23:32;11.79;90.51
70170;DHT22;57543;45.442;9.212;2024-03-02T01:26:36;11.73;90.57
70170;DHT22;57543;45.442;9.212;2024-03-02T01:29:39;11.74;90.65
70170;DHT22;57543;45.442;9.212;2024-03-02T01:32:43;11.82;90.48
70170;DHT22;57543;45.442;9.212;2024-03-02T01:35:47;11.84;90.40
70170;DHT22;57543;45.442;9.212;2024-03-02T01:38:50;11.86;90.46
70170;DHT22;57543;45.442;9.212;2024-03-02T01:41:54;11.89;90.49
70170;DHT22;57543;45.442;9.212;2024-03-02T01:44:58;11.89;90.60
70170;DHT22;57543;45.442;9.212;2024-03-02T01:48:12;11.90;90.51
70170;DHT22;57543;45.442;9.212;2024-03-02T01:51:19;11.94;90.55
70170;DHT22;57543;45.442;9.212;2024-03-02T01:54:25;11.95;90.44
70170;DHT22;57543;45.442;9.212;2024-03-02T01:57:29;12.02;90.35
70170;DHT22;57543;45.442;9.212;2024-03-02T02:00:32;12.04;90.22
70170;DHT22;57543;45.442;9.212;2024-03-02T02:03:36;12.02;90.20
70170;DHT22;57543;45.442;9.212;2024-03-02T02:06:40;11.94;90.19
70170;DHT22;57543;45.442;9.212;2024-03-02T02:09:47;11.82;90.41
70170;DHT22;57543;45.442;9.212;2024-03-02T02:12:54;11.90;90.48
70170;DHT22;57543;45.442;9.212;2024-03-02T02:16:05;11.98;90.21
70170;DHT22;57543;45.442;9.212;2024-03-02T02:19:09;11.97;90.23
70170;DHT22;57543;45.442;9.212;2024-03-02T02:22:12;12.00;90.04
70170;DHT22;57543;45.442;9.212;2024-03-02T02:25:16;12.01;89.89
70170;DHT22;57543;45.442;9.212;2024-03-02T02:28:20;11.98;89.68
70170;DHT22;57543;45.442;9.212;2024-03-02T02:31:26;11.90;89.50
70170;DHT22;57543;45.442;9.212;2024-03-02T02:34:30;11.98;89.26
70170;DHT22;57543;45.442;9.212;2024-03-02T02:37:36;11.95;89.18
70170;DHT22;57543;45.442;9.212;2024-03-02T02:40:47;11.95;89.16
70170;DHT22;57543;45.442;9.212;2024-03-02T02:43:54;11.98;89.13
70170;DHT22;57543;45.442;9.212;2024-03-02T02:46:57;11.90;89.21
70170;DHT22;57543;45.442;9.212;2024-03-02T02:50:02;11.94;89.26
70170;DHT22;57543;45.442;9.212;2024-03-02T02:53:06;11.94;89.31
70170;DHT22;57543;45.442;9.212;2024-03-02T02:56:12;11.93;89.32
70170;DHT22;57543;45.442;9.212;2024-03-02T02:59:19;11.87;89.54
70170;DHT22;57543;45.442;9.212;2024-03-02T03:02:25;11.63;90.30
70170;DHT22;57543;45.442;9.212;2024-03-02T03:05:31;11.66;90.19
70170;DHT22;57543;45.442;9.212;2024-03-02T03:08:34;11.69;90.20
70170;DHT22;57543;45.442;9.212;2024-03-02T03:11:38;11.74;90.30
70170;DHT22;57543;45.442;9.212;2024-03-02T03:14:41;11.69;90.21
70170;DHT22;57543;45.442;9.212;2024-03-02T03:17:45;11.66;90.24
70170;DHT22;57543;45.442;9.212;2024-03-02T03:20:50;11.65;90.35
70170;DHT22;57543;45.442;9.212;2024-03-02T03:23:54;11.67;90.34
70170;DHT22;57543;45.442;9.212;2024-03-02T03:26:58;11.72;90.39
70170;DHT22;57543;45.442;9.212;2024-03-02T03:30:02;11.74;90.33
70170;DHT22;57543;45.442;9.212;2024-03-02T03:33:07;11.79;90.23
70170;DHT22;57543;45.442;9.212;2024-03-02T03:36:11;11.66;90.33
70170;DHT22;57543;45.442;9.212;2024-03-02T03:39:15;11.66;90.39
70170;DHT22;57543;45.442;9.212;2024-03-02T03:42:18;11.62;90.27
70170;DHT22;57543;45.442;9.212;2024-03-02T03:45:22;11.66;90.31
70170;DHT22;57543;45.442;9.212;2024-03-02T03:48:25;11.76;90.25
70170;DHT22;57543;45.442;9.212;2024-03-02T03:51:33;11.79;90.09
70170;DHT22;57543;45.442;9.212;2024-03-02T03:54:38;11.84;90.01
70170;DHT22;57543;45.442;9.212;2024-03-02T03:57:42;11.82;90.01
70170;DHT22;57543;45.442;9.212;2024-03-02T04:00:45;11.79;90.09
70170;DHT22;57543;45.442;9.212;2024-03-02T04:03:49;11.84;90.11
70170;DHT22;57543;45.442;9.212;2024-03-02T04:06:53;11.79;90.10
70170;DHT22;57543;45.442;9.212;2024-03-02T04:09:57;11.83;90.00
70170;DHT22;57543;45.442;9.212;2024-03-02T04:13:01;11.76;89.96
70170;DHT22;57543;45.442;9.212;2024-03-02T04:16:04;11.74;90.09
70170;DHT22;57543;45.442;9.212;2024-03-02T04:19:08;11.76;90.06
70170;DHT22;57543;45.442;9.212;2024-03-02T04:22:12;11.76;90.09
70170;DHT22;57543;45.442;9.212;2024-03-02T04:25:16;11.77;90.15
70170;DHT22;57543;45.442;9.212;2024-03-02T04:28:19;11.77;90.13
70170;DHT22;57543;45.442;9.212;2024-03-02T04:31:23;11.74;90.23
70170;DHT22;57543;45.442;9.212;2024-03-02T04:34:27;11.82;90.14
70170;DHT22;57543;45.442;9.212;2024-03-02T04:37:34;11.65;90.43
70170;DHT22;57543;45.442;9.212;2024-03-02T04:40:40;11.62;90.49
70170;DHT22;57543;45.442;9.212;2024-03-02T04:43:43;11.24;91.23
70170;DHT22;57543;45.442;9.212;2024-03-02T04:46:47;11.42;90.68
70170;DHT22;57543;45.442;9.212;2024-03-02T04:49:50;11.29;90.71
70170;DHT22;57543;45.442;9.212;2024-03-02T04:52:57;11.14;91.35
70170;DHT22;57543;45.442;9.212;2024-03-02T04:56:03;11.10;90.92
70170;DHT22;57543;45.442;9.212;2024-03-02T04:59:29;11.01;90.76
70170;DHT22;57543;45.442;9.212;2024-03-02T05:02:33;11.10;90.99
70170;DHT22;57543;45.442;9.212;2024-03-02T05:05:37;11.11;90.74
70170;DHT22;57543;45.442;9.212;2024-03-02T05:08:41;11.12;90.56
70170;DHT22;57543;45.442;9.212;2024-03-02T05:11:45;11.18;90.37
70170;DHT22;57543;45.442;9.212;2024-03-02T05:15:03;11.21;89.91
70170;DHT22;57543;45.442;9.212;2024-03-02T05:18:10;11.21;90.13
70170;DHT22;57543;45.442;9.212;2024-03-02T05:21:13;11.24;89.85
70170;DHT22;57543;45.442;9.212;2024-03-02T05:24:21;11.17;89.29
70170;DHT22;57543;45.442;9.212;2024-03-02T05:27:27;11.17;89.72
70170;DHT22;57543;45.442;9.212;2024-03-02T05:30:30;11.11;89.36
70170;DHT22;57543;45.442;9.212;2024-03-02T05:33:34;11.07;89.79
70170;DHT22;57543;45.442;9.212;2024-03-02T05:36:38;11.07;90.12
70170;DHT22;57543;45.442;9.212;2024-03-02T05:39:42;11.04;90.23
70170;DHT22;57543;45.442;9.212;2024-03-02T05:42:49;11.15;90.05
70170;DHT22;57543;45.442;9.212;2024-03-02T05:45:52;11.20;89.94
70170;DHT22;57543;45.442;9.212;2024-03-02T05:48:56;11.17;89.98
70170;DHT22;57543;45.442;9.212;2024-03-02T05:52:00;11.06;90.21
70170;DHT22;57543;45.442;9.212;2024-03-02T05:55:04;10.93;90.72
70170;DHT22;57543;45.442;9.212;2024-03-02T05:58:11;10.97;90.69
70170;DHT22;57543;45.442;9.212;2024-03-02T06:01:36;10.96;90.70
70170;DHT22;57543;45.442;9.212;2024-03-02T06:04:39;11.00;90.63
70170;DHT22;57543;45.442;9.212;2024-03-02T06:07:43;10.89;91.01
70170;DHT22;57543;45.442;9.212;2024-03-02T06:10:46;10.60;91.81
70170;DHT22;57543;45.442;9.212;2024-03-02T06:13:50;10.62;92.11
70170;DHT22;57543;45.442;9.212;2024-03-02T06:16:54;10.69;91.68
70170;DHT22;57543;45.442;9.212;2024-03-02T06:19:57;10.79;91.56
70170;DHT22;57543;45.442;9.212;2024-03-02T06:23:00;10.84;91.34
70170;DHT22;57543;45.442;9.212;2024-03-02T06:26:04;10.77;91.68
70170;DHT22;57543;45.442;9.212;2024-03-02T06:29:08;10.75;91.53
70170;DHT22;57543;45.442;9.212;2024-03-02T06:32:11;10.81;91.42
70170;DHT22;57543;45.442;9.212;2024-03-02T06:35:15;10.81;91.39
70170;DHT22;57543;45.442;9.212;2024-03-02T06:38:19;10.86;91.22
70170;DHT22;57543;45.442;9.212;2024-03-02T06:41:23;10.77;91.51
70170;DHT22;57543;45.442;9.212;2024-03-02T06:44:27;10.75;91.43
70170;DHT22;57543;45.442;9.212;2024-03-02T06:47:31;10.80;91.46
70170;DHT22;57543;45.442;9.212;2024-03-02T06:50:34;10.69;91.91
70170;DHT22;57543;45.442;9.212;2024-03-02T06:53:38;10.80;91.86
70170;DHT22;57543;45.442;9.212;2024-03-02T06:56:43;10.79;91.89
70170;DHT22;57543;45.442;9.212;2024-03-02T06:59:47;10.72;92.39
70170;DHT22;57543;45.442;9.212;2024-03-02T07:02:53;10.81;91.99
70170;DHT22;57543;45.442;9.212;2024-03-02T07:05:57;10.81;92.00
70170;DHT22;57543;45.442;9.212;2024-03-02T07:09:01;10.77;92.16
70170;DHT22;57543;45.442;9.212;2024-03-02T07:12:07;10.76;92.34
70170;DHT22;57543;45.442;9.212;2024-03-02T07:15:11;10.81;92.50
70170;DHT22;57543;45.442;9.212;2024-03-02T07:18:32;10.84;92.27
70170;DHT22;57543;45.442;9.212;2024-03-02T07:21:36;10.79;92.35
70170;DHT22;57543;45.442;9.212;2024-03-02T07:24:41;10.80;92.43
70170;DHT22;57543;45.442;9.212;2024-03-02T07:27:45;10.84;92.36
70170;DHT22;57543;45.442;9.212;2024-03-02T07:34:02;10.80;92.74
70170;DHT22;57543;45.442;9.212;2024-03-02T07:37:09;10.86;92.55
70170;DHT22;57543;45.442;9.212;2024-03-02T07:40:13;10.77;92.86
70170;DHT22;57543;45.442;9.212;2024-03-02T07:43:20;10.79;92.84
70170;DHT22;57543;45.442;9.212;2024-03-02T07:46:25;10.84;92.71
70170;DHT22;57543;45.442;9.212;2024-03-02T07:49:29;10.73;92.80
70170;DHT22;57543;45.442;9.212;2024-03-02T07:52:33;10.66;93.22
70170;DHT22;57543;45.442;9.212;2024-03-02T07:55:37;10.72;93.42
70170;DHT22;57543;45.442;9.212;2024-03-02T07:58:41;10.66;93.36
70170;DHT22;57543;45.442;9.212;2024-03-02T08:01:46;10.66;93.59
70170;DHT22;57543;45.442;9.212;2024-03-02T08:04:50;10.66;93.45
70170;DHT22;57543;45.442;9.212;2024-03-02T08:07:53;10.65;93.44
70170;DHT22;57543;45.442;9.212;2024-03-02T08:10:57;10.66;93.61
70170;DHT22;57543;45.442;9.212;2024-03-02T08:14:04;10.86;93.24
70170;DHT22;57543;45.442;9.212;2024-03-02T08:17:08;10.92;92.87
70170;DHT22;57543;45.442;9.212;2024-03-02T08:20:13;11.03;91.90
70170;DHT22;57543;45.442;9.212;2024-03-02T08:23:18;10.94;91.97
70170;DHT22;57543;45.442;9.212;2024-03-02T08:26:24;11.03;91.95
70170;DHT22;57543;45.442;9.212;2024-03-02T08:29:28;10.87;91.96
70170;DHT22;57543;45.442;9.212;2024-03-02T08:32:32;10.86;92.05
70170;DHT22;57543;45.442;9.212;2024-03-02T08:35:35;11.03;91.82
70170;DHT22;57543;45.442;9.212;2024-03-02T08:38:39;11.03;91.56
70170;DHT22;57543;45.442;9.212;2024-03-02T08:41:47;10.96;91.41
70170;DHT22;57543;45.442;9.212;2024-03-02T08:44:53;10.96;91.58
70170;DHT22;57543;45.442;9.212;2024-03-02T08:47:56;11.00;91.28
70170;DHT22;57543;45.442;9.212;2024-03-02T08:51:00;11.03;91.36
70170;DHT22;57543;45.442;9.212;2024-03-02T08:54:04;10.99;91.27
70170;DHT22;57543;45.442;9.212;2024-03-02T08:57:07;11.03;91.19
70170;DHT22;57543;45.442;9.212;2024-03-02T09:00:11;11.04;91.06
70170;DHT22;57543;45.442;9.212;2024-03-02T09:03:15;11.07;91.04
70170;DHT22;57543;45.442;9.212;2024-03-02T09:06:22;11.00;91.12
70170;DHT22;57543;45.442;9.212;2024-03-02T09:09:26;11.01;90.99
70170;DHT22;57543;45.442;9.212;2024-03-02T09:12:29;10.92;91.49
70170;DHT22;57543;45.442;9.212;2024-03-02T09:15:36;10.94;91.47
70170;DHT22;57543;45.442;9.212;2024-03-02T09:18:41;11.00;91.58
70170;DHT22;57543;45.442;9.212;2024-03-02T09:21:44;11.01;92.08
70170;DHT22;57543;45.442;9.212;2024-03-02T09:24:47;11.12;91.59
70170;DHT22;57543;45.442;9.212;2024-03-02T09:27:52;11.14;91.76
70170;DHT22;57543;45.442;9.212;2024-03-02T09:30:55;11.24;91.16
70170;DHT22;57543;45.442;9.212;2024-03-02T09:33:59;11.17;90.29
70170;DHT22;57543;45.442;9.212;2024-03-02T09:37:03;11.32;90.76
70170;DHT22;57543;45.442;9.212;2024-03-02T09:40:10;11.51;90.80
70170;DHT22;57543;45.442;9.212;2024-03-02T09:43:14;11.58;90.64
70170;DHT22;57543;45.442;9.212;2024-03-02T09:46:19;11.46;90.69
70170;DHT22;57543;45.442;9.212;2024-03-02T09:49:23;11.43;90.58
70170;DHT22;57543;45.442;9.212;2024-03-02T09:52:27;11.59;90.32
70170;DHT22;57543;45.442;9.212;2024-03-02T09:55:30;11.56;90.15
70170;DHT22;57543;45.442;9.212;2024-03-02T09:58:34;11.46;89.92
70170;DHT22;57543;45.442;9.212;2024-03-02T10:01:38;11.61;90.04
70170;DHT22;57543;45.442;9.212;2024-03-02T10:04:41;11.54;89.63
70170;DHT22;57543;45.442;9.212;2024-03-02T10:08:01;11.38;90.01
70170;DHT22;57543;45.442;9.212;2024-03-02T10:11:05;11.36;90.20
70170;DHT22;57543;45.442;9.212;2024-03-02T10:14:12;11.40;89.97
70170;DHT22;57543;45.442;9.212;2024-03-02T10:17:19;11.38;90.23
70170;DHT22;57543;45.442;9.212;2024-03-02T10:20:27;11.45;90.29
70170;DHT22;57543;45.442;9.212;2024-03-02T10:23:34;11.55;90.14
70170;DHT22;57543;45.442;9.212;2024-03-02T10:26:37;11.49;90.49
70170;DHT22;57543;45.442;9.212;2024-03-02T10:29:47;11.56;90.22
70170;DHT22;57543;45.442;9.212;2024-03-02T10:32:53;11.58;90.23
70170;DHT22;57543;45.442;9.212;2024-03-02T10:35:57;11.63;90.17
70170;DHT22;57543;45.442;9.212;2024-03-02T10:39:05;11.55;90.05
70170;DHT22;57543;45.442;9.212;2024-03-02T10:42:12;11.56;90.20
70170;DHT22;57543;45.442;9.212;2024-03-02T10:45:16;11.52;90.04
70170;DHT22;57543;45.442;9.212;2024-03-02T10:48:20;11.48;90.28
70170;DHT22;57543;45.442;9.212;2024-03-02T10:51:25;11.43;90.16
70170;DHT22;57543;45.442;9.212;2024-03-02T10:54:29;11.39;90.44
70170;DHT22;57543;45.442;9.212;2024-03-02T10:57:41;11.48;90.29
70170;DHT22;57543;45.442;9.212;2024-03-02T11:00:45;11.52;90.20
70170;DHT22;57543;45.442;9.212;2024-03-02T11:03:49;11.46;89.76
70170;DHT22;57543;45.442;9.212;2024-03-02T11:07:02;11.39;90.30
70170;DHT22;57543;45.442;9.212;2024-03-02T11:10:08;11.51;90.31
70170;DHT22;57543;45.442;9.212;2024-03-02T11:13:12;11.43;90.37
70170;DHT22;57543;45.442;9.212;2024-03-02T11:16:35;11.55;90.24
70170;DHT22;57543;45.442;9.212;2024-03-02T11:19:40;11.58;90.49
70170;DHT22;57543;45.442;9.212;2024-03-02T11:22:44;11.65;90.48
70170;DHT22;57543;45.442;9.212;2024-03-02T11:25:48;11.76;90.38
70170;DHT22;57543;45.442;9.212;2024-03-02T11:28:52;11.72;90.50
70170;DHT22;57543;45.442;9.212;2024-03-02T11:31:59;11.79;90.46
70170;DHT22;57543;45.442;9.212;2024-03-02T11:35:06;11.87;90.54
70170;DHT22;57543;45.442;9.212;2024-03-02T11:38:10;11.89;90.84
70170;DHT22;57543;45.442;9.212;2024-03-02T11:41:15;11.94;90.66
70170;DHT22;57543;45.442;9.212;2024-03-02T11:44:19;11.84;90.12
70170;DHT22;57543;45.442;9.212;2024-03-02T11:47:23;11.86;90.22
70170;DHT22;57543;45.442;9.212;2024-03-02T11:50:33;11.94;89.95
70170;DHT22;57543;45.442;9.212;2024-03-02T11:53:40;11.97;89.35
70170;DHT22;57543;45.442;9.212;2024-03-02T11:56:46;11.91;88.40
70170;DHT22;57543;45.442;9.212;2024-03-02T11:59:50;11.95;88.83
70170;DHT22;57543;45.442;9.212;2024-03-02T12:06:06;11.89;88.87
70170;DHT22;57543;45.442;9.212;2024-03-02T12:09:11;11.97;88.54
70170;DHT22;57543;45.442;9.212;2024-03-02T12:12:15;12.01;88.36
70170;DHT22;57543;45.442;9.212;2024-03-02T12:15:29;12.07;88.20
70170;DHT22;57543;45.442;9.212;2024-03-02T12:18:33;11.94;87.85
70170;DHT22;57543;45.442;9.212;2024-03-02T12:21:37;12.05;87.71
70170;DHT22;57543;45.442;9.212;2024-03-02T12:24:41;12.13;87.05
70170;DHT22;57543;45.442;9.212;2024-03-02T12:27:53;12.13;86.59
70170;DHT22;57543;45.442;9.212;2024-03-02T12:30:57;12.16;86.64
70170;DHT22;57543;45.442;9.212;2024-03-02T12:34:03;11.97;86.14
70170;DHT22;57543;45.442;9.212;2024-03-02T12:37:12;12.11;86.29
70170;DHT22;57543;45.442;9.212;2024-03-02T12:40:17;12.14;86.21
70170;DHT22;57543;45.442;9.212;2024-03-02T12:43:21;12.17;86.20
70170;DHT22;57543;45.442;9.212;2024-03-02T12:46:27;12.17;86.45
70170;DHT22;57543;45.442;9.212;2024-03-02T12:49:30;12.10;86.10
70170;DHT22;57543;45.442;9.212;2024-03-02T12:52:38;12.10;86.31
70170;DHT22;57543;45.442;9.212;2024-03-02T12:55:41;12.17;86.24
70170;DHT22;57543;45.442;9.212;2024-03-02T12:58:45;12.28;86.31
70170;DHT22;57543;45.442;9.212;2024-03-02T13:01:56;12.29;86.03
70170;DHT22;57543;45.442;9.212;2024-03-02T13:05:02;12.28;86.21
70170;DHT22;57543;45.442;9.212;2024-03-02T13:08:07;12.21;86.15
70170;DHT22;57543;45.442;9.212;2024-03-02T13:11:13;12.27;86.13
70170;DHT22;57543;45.442;9.212;2024-03-02T13:14:17;12.24;86.45
70170;DHT22;57543;45.442;9.212;2024-03-02T13:17:21;12.31;86.52
70170;DHT22;57543;45.442;9.212;2024-03-02T13:20:30;12.29;86.49
70170;DHT22;57543;45.442;9.212;2024-03-02T13:23:35;12.35;86.54
70170;DHT22;57543;45.442;9.212;2024-03-02T13:26:39;12.36;86.19
70170;DHT22;57543;45.442;9.212;2024-03-02T13:29:43;12.48;85.94
70170;DHT22;57543;45.442;9.212;2024-03-02T13:32:47;12.45;85.61
70170;DHT22;57543;45.442;9.212;2024-03-02T13:35:51;12.48;85.38
70170;DHT22;57543;45.442;9.212;2024-03-02T13:38:55;12.42;85.18
70170;DHT22;57543;45.442;9.212;2024-03-02T13:42:01;12.56;85.23
70170;DHT22;57543;45.442;9.212;2024-03-02T13:45:10;12.55;85.25
70170;DHT22;57543;45.442;9.212;2024-03-02T13:48:14;12.59;85.13
70170;DHT22;57543;45.442;9.212;2024-03-02T13:51:19;12.60;85.05
70170;DHT22;57543;45.442;9.212;2024-03-02T13:54:22;12.59;85.47
70170;DHT22;57543;45.442;9.212;2024-03-02T13:57:28;12.62;85.16
70170;DHT22;57543;45.442;9.212;2024-03-02T14:00:32;12.56;85.18
70170;DHT22;57543;45.442;9.212;2024-03-02T14:03:36;12.49;85.35
70170;DHT22;57543;45.442;9.212;2024-03-02T14:06:40;12.45;85.97
70170;DHT22;57543;45.442;9.212;2024-03-02T14:09:47;12.42;85.96
70170;DHT22;57543;45.442;9.212;2024-03-02T14:12:51;12.59;86.04
70170;DHT22;57543;45.442;9.212;2024-03-02T14:15:55;12.67;85.38
70170;DHT22;57543;45.442;9.212;2024-03-02T14:19:01;12.73;85.75
70170;DHT22;57543;45.442;9.212;2024-03-02T14:22:08;12.77;85.58
70170;DHT22;57543;45.442;9.212;2024-03-02T14:25:14;12.73;85.99
70170;DHT22;57543;45.442;9.212;2024-03-02T14:28:19;12.79;85.95
70170;DHT22;57543;45.442;9.212;2024-03-02T14:31:26;12.73;85.95
70170;DHT22;57543;45.442;9.212;2024-03-02T14:34:29;12.64;86.30
70170;DHT22;57543;45.442;9.212;2024-03-02T14:37:33;12.59;85.82
70170;DHT22;57543;45.442;9.212;2024-03-02T14:40:39;12.53;86.50
70170;DHT22;57543;45.442;9.212;2024-03-02T14:43:46;12.56;86.43
70170;DHT22;57543;45.442;9.212;2024-03-02T14:46:49;12.60;86.24
70170;DHT22;57543;45.442;9.212;2024-03-02T14:49:54;12.56;86.30
70170;DHT22;57543;45.442;9.212;2024-03-02T14:52:57;12.41;87.05
70170;DHT22;57543;45.442;9.212;2024-03-02T14:56:00;12.32;87.24
70170;DHT22;57543;45.442;9.212;2024-03-02T14:59:04;12.25;87.42
70170;DHT22;57543;45.442;9.212;2024-03-02T15:02:08;12.36;87.41
70170;DHT22;57543;45.442;9.212;2024-03-02T15:05:12;12.32;87.99
70170;DHT22;57543;45.442;9.212;2024-03-02T15:08:16;12.18;87.88
70170;DHT22;57543;45.442;9.212;2024-03-02T15:11:21;12.32;88.00
70170;DHT22;57543;45.442;9.212;2024-03-02T15:14:31;12.21;88.64
70170;DHT22;57543;45.442;9.212;2024-03-02T15:17:35;12.21;88.71
70170;DHT22;57543;45.442;9.212;2024-03-02T15:20:38;12.18;89.05
70170;DHT22;57543;45.442;9.212;2024-03-02T15:23:42;12.16;88.81
70170;DHT22;57543;45.442;9.212;2024-03-02T15:26:46;12.14;89.04
70170;DHT22;57543;45.442;9.212;2024-03-02T15:29:50;12.14;89.17
70170;DHT22;57543;45.442;9.212;2024-03-02T15:32:55;12.07;89.72
70170;DHT22;57543;45.442;9.212;2024-03-02T15:36:02;12.02;89.95
70170;DHT22;57543;45.442;9.212;2024-03-02T15:39:08;12.08;89.97
70170;DHT22;57543;45.442;9.212;2024-03-02T15:42:12;12.02;90.51
70170;DHT22;57543;45.442;9.212;2024-03-02T15:45:18;12.00;90.66
70170;DHT22;57543;45.442;9.212;2024-03-02T15:48:23;11.98;91.21
70170;DHT22;57543;45.442;9.212;2024-03-02T15:51:28;11.98;91.01
70170;DHT22;57543;45.442;9.212;2024-03-02T15:54:32;11.91;91.26
70170;DHT22;57543;45.442;9.212;2024-03-02T15:57:36;11.97;90.99
70170;DHT22;57543;45.442;9.212;2024-03-02T16:00:42;11.84;91.16
70170;DHT22;57543;45.442;9.212;2024-03-02T16:03:46;11.91;90.92
70170;DHT22;57543;45.442;9.212;2024-03-02T16:06:52;11.94;91.04
70170;DHT22;57543;45.442;9.212;2024-03-02T16:09:59;12.07;90.77
70170;DHT22;57543;45.442;9.212;2024-03-02T16:13:06;12.04;90.67
70170;DHT22;57543;45.442;9.212;2024-03-02T16:16:13;11.98;90.70
70170;DHT22;57543;45.442;9.212;2024-03-02T16:19:17;11.95;91.17
70170;DHT22;57543;45.442;9.212;2024-03-02T16:22:21;12.00;90.53
70170;DHT22;57543;45.442;9.212;2024-03-02T16:25:26;11.98;90.77
70170;DHT22;57543;45.442;9.212;2024-03-02T16:28:31;12.00;90.61
70170;DHT22;57543;45.442;9.212;2024-03-02T16:31:35;11.91;91.19
70170;DHT22;57543;45.442;9.212;2024-03-02T16:34:41;11.89;91.40
70170;DHT22;57543;45.442;9.212;2024-03-02T16:37:45;11.87;91.74
70170;DHT22;57543;45.442;9.212;2024-03-02T16:41:09;11.86;91.71
70170;DHT22;57543;45.442;9.212;2024-03-02T16:44:14;11.93;91.47
70170;DHT22;57543;45.442;9.212;2024-03-02T16:47:18;11.80;91.37
70170;DHT22;57543;45.442;9.212;2024-03-02T16:50:24;11.80;91.44
70170;DHT22;57543;45.442;9.212;2024-03-02T16:53:33;11.84;91.48
70170;DHT22;57543;45.442;9.212;2024-03-02T16:56:43;11.87;91.57
70170;DHT22;57543;45.442;9.212;2024-03-02T16:59:48;11.79;91.51
70170;DHT22;57543;45.442;9.212;2024-03-02T17:02:52;11.80;91.85
70170;DHT22;57543;45.442;9.212;2024-03-02T17:05:56;11.84;91.63
70170;DHT22;57543;45.442;9.212;2024-03-02T17:09:07;11.89;91.51
70170;DHT22;57543;45.442;9.212;2024-03-02T17:12:11;12.01;91.21
70170;DHT22;57543;45.442;9.212;2024-03-02T17:15:15;11.97;91.07
70170;DHT22;57543;45.442;9.212;2024-03-02T17:18:19;11.95;91.08
70170;DHT22;57543;45.442;9.212;2024-03-02T17:21:23;11.83;91.38
70170;DHT22;57543;45.442;9.212;2024-03-02T17:24:27;11.84;91.57
70170;DHT22;57543;45.442;9.212;2024-03-02T17:27:30;11.87;91.44
70170;DHT22;57543;45.442;9.212;2024-03-02T17:30:37;11.79;91.83
70170;DHT22;57543;45.442;9.212;2024-03-02T17:33:40;11.84;91.92
70170;DHT22;57543;45.442;9.212;2024-03-02T17:36:44;11.84;91.61
70170;DHT22;57543;45.442;9.212;2024-03-02T17:39:48;11.87;91.70
70170;DHT22;57543;45.442;9.212;2024-03-02T17:42:51;11.84;91.77
70170;DHT22;57543;45.442;9.212;2024-03-02T17:45:57;11.72;92.23
70170;DHT22;57543;45.442;9.212;2024-03-02T17:49:01;11.65;92.43
70170;DHT22;57543;45.442;9.212;2024-03-02T17:52:05;11.76;92.43
70170;DHT22;57543;45.442;9.212;2024-03-02T17:55:08;11.72;92.44
70170;DHT22;57543;45.442;9.212;2024-03-02T17:58:12;11.77;92.32
70170;DHT22;57543;45.442;9.212;2024-03-02T18:01:16;11.74;92.47
70170;DHT22;57543;45.442;9.212;2024-03-02T18:04:20;11.80;92.37
70170;DHT22;57543;45.442;9.212;2024-03-02T18:07:25;11.80;92.44
70170;DHT22;57543;45.442;9.212;2024-03-02T18:10:28;11.72;92.50
70170;DHT22;57543;45.442;9.212;2024-03-02T18:13:32;11.69;92.59
70170;DHT22;57543;45.442;9.212;2024-03-02T18:16:37;11.67;92.63
70170;DHT22;57543;45.442;9.212;2024-03-02T18:19:40;11.65;92.80
70170;DHT22;57543;45.442;9.212;2024-03-02T18:22:44;11.69;92.61
70170;DHT22;57543;45.442;9.212;2024-03-02T18:25:48;11.69;92.70
70170;DHT22;57543;45.442;9.212;2024-03-02T18:28:51;11.72;92.53
70170;DHT22;57543;45.442;9.212;2024-03-02T18:31:58;11.77;92.17
70170;DHT22;57543;45.442;9.212;2024-03-02T18:35:09;11.67;92.53
70170;DHT22;57543;45.442;9.212;2024-03-02T18:38:13;11.65;92.66
70170;DHT22;57543;45.442;9.212;2024-03-02T18:41:16;11.66;92.80
70170;DHT22;57543;45.442;9.212;2024-03-02T18:44:20;11.66;92.78
70170;DHT22;57543;45.442;9.212;2024-03-02T18:47:23;11.62;92.95
70170;DHT22;57543;45.442;9.212;2024-03-02T18:50:27;11.66;92.77
70170;DHT22;57543;45.442;9.212;2024-03-02T18:53:31;11.62;92.79
70170;DHT22;57543;45.442;9.212;2024-03-02T18:56:35;11.51;93.10
70170;DHT22;57543;45.442;9.212;2024-03-02T18:59:38;11.59;93.11
70170;DHT22;57543;45.442;9.212;2024-03-02T19:02:42;11.63;92.96
70170;DHT22;57543;45.442;9.212;2024-03-02T19:05:47;11.52;93.26
70170;DHT22;57543;45.442;9.212;2024-03-02T19:08:53;11.54;93.29
70170;DHT22;57543;45.442;9.212;2024-03-02T19:11:57;11.55;93.25
70170;DHT22;57543;45.442;9.212;2024-03-02T19:15:00;11.59;93.04
70170;DHT22;57543;45.442;9.212;2024-03-02T19:18:07;11.69;92.92
70170;DHT22;57543;45.442;9.212;2024-03-02T19:21:10;11.61;92.95
70170;DHT22;57543;45.442;9.212;2024-03-02T19:24:14;11.56;93.04
70170;DHT22;57543;45.442;9.212;2024-03-02T19:27:17;11.52;93.10
70170;DHT22;57543;45.442;9.212;2024-03-02T19:30:21;11.46;93.24
70170;DHT22;57543;45.442;9.212;2024-03-02T19:33:24;11.59;92.99
70170;DHT22;57543;45.442;9.212;2024-03-02T19:36:28;11.58;92.96
70170;DHT22;57543;45.442;9.212;2024-03-02T19:39:32;11.59;92.98
70170;DHT22;57543;45.442;9.212;2024-03-02T19:42:42;11.49;93.17